• Join FlightAware (Why Join?)
  • Login
  • US Flag 
04:37PM EDT


 

Airport Tracker/Info


-or-


 

Live Flight TrackerFlight Track Log ✈ LMO7162 ✈ 25-Dec-2013 ✈ KAUO - KPIE

Flight Track Log - Related Links

Times and Time Zones

All times are in EST time to prevent confusion due to time zone crossing. See the LMO7162 flight status page for this flight to view local times or setup timezone preferences in your user account.

Time Position Orientation Groundspeed Altitude Reporting Facility
EST Latitude Longitude Course Direction KTS MPH feet Rate Location/Type
12:19PM 32.5328 -85.3519 157° South 202 232 6,800  Level Atlanta Center
12:20PM 32.4767 -85.3217 156° South 207 238 8,800 2,040 Climbing Atlanta Center
12:21PM 32.4206 -85.2961 159° South 220 253 10,900 1,920 Climbing Atlanta Center
12:22PM 32.3625 -85.2633 155° Southeast 225 259 12,700 2,040 Climbing Atlanta Center
12:23PM 32.2537 -85.2121 157° South  Level Estimated
12:23PM 32.3003 -85.2331 158° South 230 265 15,000  Level Atlanta Center
12:24PM 32.2400 -85.2028 157° South 235 270 17,000 1,500 Climbing Atlanta Center
12:25PM 32.1797 -85.1725 157° South 235 270 18,100 1,440 Climbing Atlanta Center
12:26PM 32.1028 -85.1372 159° South 242 278 19,900 1,740 Climbing Atlanta Center
12:27PM 32.0300 -85.1019 158° South 267 307 21,600 1,740 Climbing Atlanta Center
12:28PM 31.9594 -85.0669 157° South 279 321 23,400 1,500 Climbing Atlanta Center
12:29PM 31.8275 -85.0003 157° South 281 323 26,000 1,380 Climbing Jacksonville Center
12:30PM 31.7531 -84.9619 156° South 291 335 27,400 1,260 Climbing Jacksonville Center
12:31PM 31.6764 -84.9236 157° South 297 342 28,600 1,080 Climbing Jacksonville Center
12:32PM 31.5933 -84.8828 157° South 311 358 29,600 900 Climbing Jacksonville Center
12:33PM 31.5106 -84.8419 157° South 316 364 30,500 660 Climbing Jacksonville Center
12:34PM 31.4256 -84.7989 157° South 322 371 31,000 240 Climbing Jacksonville Center
12:35PM 31.3322 -84.7556 158° South 344 396 31,000  Level Jacksonville Center
12:36PM 31.2392 -84.7075 156° South 358 412 31,000  Level Jacksonville Center
12:37PM 31.1394 -84.6597 158° South 374 430 31,000  Level Jacksonville Center
12:38PM 31.0419 -84.6117 157° South 379 436 31,000  Level Jacksonville Center
12:39PM 30.9425 -84.5639 158° South 379 436 31,000  Level Jacksonville Center
12:40PM 30.8428 -84.5161 158° South 384 442 31,000  Level Jacksonville Center
12:41PM 30.7433 -84.4686 158° South 389 448 31,000  Level Jacksonville Center
12:42PM 30.6456 -84.4211 157° South 388 447 31,000  Level Jacksonville Center
12:43PM 30.5461 -84.3664 155° Southeast 388 447 31,000  Level Jacksonville Center
12:44PM 30.4528 -84.3047 150° Southeast 388 447 31,000  Level Jacksonville Center
12:45PM 30.3553 -84.2431 151° Southeast 388 447 31,000  Level Jacksonville Center
12:46PM 30.2622 -84.1817 150° Southeast 388 447 31,000  Level Jacksonville Center
12:47PM 30.1686 -84.1203 150° Southeast 383 441 31,000  Level Jacksonville Center
12:48PM 30.0753 -84.0614 151° Southeast 383 441 31,000  Level Jacksonville Center
12:49PM 29.9797 -84.0003 151° Southeast 383 441 31,000  Level Jacksonville Center
12:50PM 29.8844 -83.9394 151° Southeast 388 447 31,000  Level Jacksonville Center
12:51PM 29.7908 -83.8786 151° Southeast 388 447 31,000  Level Jacksonville Center
12:52PM 29.6869 -83.8106 150° Southeast 388 447 31,000  Level Jacksonville Center
12:53PM 29.5914 -83.7475 150° Southeast 388 447 31,000  Level Jacksonville Center
12:54PM 29.4978 -83.6872 151° Southeast 388 447 31,000  Level Jacksonville Center
12:55PM 29.4022 -83.6244 150° Southeast 388 447 31,000 -960 Level Jacksonville Center
12:56PM 29.3044 -83.5642 152° Southeast 388 447 29,100 -2,100 Descending Jacksonville Center
12:57PM 29.2067 -83.5017 151° Southeast 394 453 26,800 -2,280 Descending Jacksonville Center
12:58PM 29.1172 -83.4439 151° Southeast 386 444 24,600 -2,220 Descending Jacksonville Center
12:59PM 29.0214 -83.3864 152° Southeast 381 438 22,400 -2,280 Descending Jacksonville Center
01:00PM 28.9317 -83.3267 150° Southeast 386 444 20,100 -2,220 Descending Jacksonville Center
01:01PM 28.8486 -83.2719 150° Southeast 369 425 18,000 -1,920 Descending Jacksonville Center
01:02PM 28.7650 -83.2242 153° Southeast 349 402 16,300 -1,920 Descending Jacksonville Center
01:05PM 28.6000 -83.1167 150° Southeast 296 341 11,900 -1,680 Descending Tampa TRACON
01:06PM 28.5333 -83.0667 147° Southeast 293 337 11,000 -480 Descending Tampa TRACON
01:07PM 28.4500 -83.0333 161° South 297 342 11,000  Level Tampa TRACON
01:08PM 28.3833 -82.9833 147° Southeast 299 344 11,000 -960 Level Tampa TRACON
01:09PM 28.3167 -82.9333 147° Southeast 279 321 9,100 -2,280 Descending Tampa TRACON
01:10PM 28.2500 -82.9000 156° South 279 321 6,500 -2,460 Descending Tampa TRACON
01:11PM 28.1667 -82.8500 152° Southeast 266 306 4,000 -1,200 Descending Tampa TRACON
01:12PM 28.1167 -82.8167 150° Southeast 239 275 4,000  Level Tampa TRACON
01:13PM 28.0500 -82.7833 156° South 270 311 4,000 -420 Level Tampa TRACON
01:14PM 27.9833 -82.7667 168° South 243 280 3,200 -720 Descending Tampa TRACON
01:15PM 27.9167 -82.7667 180° South 215 247 2,600 -720 Descending Tampa TRACON
01:16PM 27.8667 -82.7500 164° South 193 222 1,900 -780 Descending Tampa TRACON
01:17PM 27.8667 -82.7000 90° East 152 175 1,200 -900 Descending Tampa TRACON
01:18PM 27.8833 -82.6833 41° Northeast 128 147 200 -1,020 Descending Tampa TRACON